Terminal Aerodrome Forecast
Issued by NWS

Home | Current Version | Previous Version | Text Only | Print | Product List | Glossary On
Versions: 1 2 3 4 5 6 7 8 9 10 11 12 13 14 15 16 17 18
000
FTUS46 KSEW 160922 AAA
TAFBFI
TAF AMD
KBFI 160922Z 1609/1706 VRB03KT P6SM SCT017 BKN150
      TEMPO 1610/1614 BKN017 OVC150
     FM161400 15004KT P6SM SCT025 BKN070
      TEMPO 1614/1618 BKN025 OVC070=

USA.gov is the U.S. government's official web portal to all federal, state and local government web resources and services.